sensor_id;sensor_type;location;lat;lon;timestamp;pressure;altitude;pressure_sealevel;temperature;humidity
69455;BME280;56660;51.986;5.930;2022-07-21T00:00:27;101717.03;;;23.26;62.04
69455;BME280;56660;51.986;5.930;2022-07-21T00:02:53;101730.25;;;23.29;61.89
69455;BME280;56660;51.986;5.930;2022-07-21T00:05:21;101715.13;;;23.27;61.85
69455;BME280;56660;51.986;5.930;2022-07-21T00:07:48;101700.03;;;23.24;62.01
69455;BME280;56660;51.986;5.930;2022-07-21T00:10:19;101707.16;;;23.19;61.72
69455;BME280;56660;51.986;5.930;2022-07-21T00:12:46;101716.59;;;23.16;61.25
69455;BME280;56660;51.986;5.930;2022-07-21T00:15:19;101723.09;;;23.15;61.89
69455;BME280;56660;51.986;5.930;2022-07-21T00:17:47;101728.34;;;23.17;61.91
69455;BME280;56660;51.986;5.930;2022-07-21T00:20:14;101740.72;;;23.19;62.10
69455;BME280;56660;51.986;5.930;2022-07-21T00:22:44;101732.53;;;23.19;62.32
69455;BME280;56660;51.986;5.930;2022-07-21T00:25:12;101737.16;;;23.19;62.11
69455;BME280;56660;51.986;5.930;2022-07-21T00:27:39;101742.63;;;23.19;62.08
69455;BME280;56660;51.986;5.930;2022-07-21T00:30:07;101731.91;;;23.17;62.16
69455;BME280;56660;51.986;5.930;2022-07-21T00:32:36;101724.78;;;23.16;62.43
69455;BME280;56660;51.986;5.930;2022-07-21T00:35:03;101736.97;;;23.20;62.41
69455;BME280;56660;51.986;5.930;2022-07-21T00:37:29;101736.97;;;23.20;62.32
69455;BME280;56660;51.986;5.930;2022-07-21T00:39:56;101733.59;;;23.18;62.38
69455;BME280;56660;51.986;5.930;2022-07-21T00:42:23;101733.59;;;23.18;62.56
69455;BME280;56660;51.986;5.930;2022-07-21T00:44:50;101723.09;;;23.15;62.62
69455;BME280;56660;51.986;5.930;2022-07-21T00:47:20;101713.22;;;23.14;62.62
69455;BME280;56660;51.986;5.930;2022-07-21T00:49:46;101716.16;;;23.13;62.78
69455;BME280;56660;51.986;5.930;2022-07-21T00:52:12;101723.50;;;23.12;62.48
69455;BME280;56660;51.986;5.930;2022-07-21T00:54:37;101722.03;;;23.09;62.75
69455;BME280;56660;51.986;5.930;2022-07-21T00:57:13;101724.56;;;23.11;62.70
69455;BME280;56660;51.986;5.930;2022-07-21T00:59:39;101722.25;;;23.08;62.75
69455;BME280;56660;51.986;5.930;2022-07-21T01:02:06;101716.78;;;23.08;62.49
69455;BME280;56660;51.986;5.930;2022-07-21T01:04:32;101718.44;;;23.02;62.54
69455;BME280;56660;51.986;5.930;2022-07-21T01:07:00;101721.78;;;22.98;62.79
69455;BME280;56660;51.986;5.930;2022-07-21T01:09:33;101705.41;;;22.91;62.98
69455;BME280;56660;51.986;5.930;2022-07-21T01:12:02;101703.53;;;22.92;62.88
69455;BME280;56660;51.986;5.930;2022-07-21T01:14:30;101688.22;;;22.91;62.76
69455;BME280;56660;51.986;5.930;2022-07-21T01:16:56;101683.16;;;22.88;63.04
69455;BME280;56660;51.986;5.930;2022-07-21T01:19:27;101684.63;;;22.84;62.92
69455;BME280;56660;51.986;5.930;2022-07-21T01:21:54;101695.94;;;22.81;62.99
69455;BME280;56660;51.986;5.930;2022-07-21T01:24:20;101690.03;;;22.77;63.13
69455;BME280;56660;51.986;5.930;2022-07-21T01:26:47;101694.63;;;22.76;63.37
69455;BME280;56660;51.986;5.930;2022-07-21T01:29:14;101690.22;;;22.75;63.26
69455;BME280;56660;51.986;5.930;2022-07-21T01:31:44;101688.34;;;22.76;62.99
69455;BME280;56660;51.986;5.930;2022-07-21T01:34:12;101694.84;;;22.75;63.21
69455;BME280;56660;51.986;5.930;2022-07-21T01:36:40;101706.16;;;22.72;63.16
69455;BME280;56660;51.986;5.930;2022-07-21T01:39:07;101697.75;;;22.67;63.14
69455;BME280;56660;51.986;5.930;2022-07-21T01:41:34;101706.94;;;22.59;62.91
69455;BME280;56660;51.986;5.930;2022-07-21T01:44:01;101709.03;;;22.57;63.13
69455;BME280;56660;51.986;5.930;2022-07-21T01:46:30;101710.06;;;22.56;63.30
69455;BME280;56660;51.986;5.930;2022-07-21T01:48:57;101708.78;;;22.52;63.32
69455;BME280;56660;51.986;5.930;2022-07-21T01:51:23;101706.28;;;22.51;63.27
69455;BME280;56660;51.986;5.930;2022-07-21T01:53:49;101715.69;;;22.48;63.35
69455;BME280;56660;51.986;5.930;2022-07-21T01:56:19;101709.41;;;22.48;63.57
69455;BME280;56660;51.986;5.930;2022-07-21T01:58:45;101705.19;;;22.45;63.57
69455;BME280;56660;51.986;5.930;2022-07-21T02:01:11;101692.63;;;22.44;63.51
69455;BME280;56660;51.986;5.930;2022-07-21T02:03:37;101693.03;;;22.41;63.36
69455;BME280;56660;51.986;5.930;2022-07-21T02:06:03;101699.31;;;22.41;63.69
69455;BME280;56660;51.986;5.930;2022-07-21T02:08:30;101693.22;;;22.39;63.58
69455;BME280;56660;51.986;5.930;2022-07-21T02:10:56;101687.34;;;22.36;63.70
69455;BME280;56660;51.986;5.930;2022-07-21T02:13:23;101684.81;;;22.34;63.41
69455;BME280;56660;51.986;5.930;2022-07-21T02:15:48;101688.78;;;22.32;63.74
69455;BME280;56660;51.986;5.930;2022-07-21T02:18:19;101691.72;;;22.30;63.91
69455;BME280;56660;51.986;5.930;2022-07-21T02:20:46;101680.38;;;22.27;63.80
69455;BME280;56660;51.986;5.930;2022-07-21T02:23:14;101680.38;;;22.27;63.85
69455;BME280;56660;51.986;5.930;2022-07-21T02:25:40;101677.00;;;22.25;64.05
69455;BME280;56660;51.986;5.930;2022-07-21T02:28:07;101674.91;;;22.20;64.01
69455;BME280;56660;51.986;5.930;2022-07-21T02:30:34;101675.50;;;22.16;64.05
69455;BME280;56660;51.986;5.930;2022-07-21T02:32:59;101686.59;;;22.14;64.16
69455;BME280;56660;51.986;5.930;2022-07-21T02:35:25;101676.53;;;22.14;64.36
69455;BME280;56660;51.986;5.930;2022-07-21T02:37:51;101676.31;;;22.09;64.11
69455;BME280;56660;51.986;5.930;2022-07-21T02:40:18;101679.44;;;22.06;64.16
69455;BME280;56660;51.986;5.930;2022-07-21T02:42:44;101689.69;;;22.04;64.32
69455;BME280;56660;51.986;5.930;2022-07-21T02:45:10;101691.56;;;22.04;64.25
69455;BME280;56660;51.986;5.930;2022-07-21T02:47:50;101691.75;;;22.02;65.06
69455;BME280;56660;51.986;5.930;2022-07-21T02:50:18;101684.22;;;22.04;64.46
69455;BME280;56660;51.986;5.930;2022-07-21T02:52:45;101680.00;;;22.02;64.68
69455;BME280;56660;51.986;5.930;2022-07-21T02:55:10;101669.56;;;22.05;64.87
69455;BME280;56660;51.986;5.930;2022-07-21T02:57:36;101672.94;;;22.07;64.73
69455;BME280;56660;51.986;5.930;2022-07-21T03:00:03;101671.91;;;22.08;64.69
69455;BME280;56660;51.986;5.930;2022-07-21T03:02:30;101679.88;;;22.10;64.85
69455;BME280;56660;51.986;5.930;2022-07-21T03:04:59;101678.63;;;22.12;64.75
69455;BME280;56660;51.986;5.930;2022-07-21T03:07:24;101670.25;;;22.14;64.75
69455;BME280;56660;51.986;5.930;2022-07-21T03:09:50;101677.38;;;22.15;64.91
69455;BME280;56660;51.986;5.930;2022-07-21T03:12:16;101676.13;;;22.18;64.71
69455;BME280;56660;51.986;5.930;2022-07-21T03:14:43;101667.75;;;22.19;64.83
69455;BME280;56660;51.986;5.930;2022-07-21T03:17:09;101666.28;;;22.17;64.76
69455;BME280;56660;51.986;5.930;2022-07-21T03:19:35;101667.31;;;22.16;64.89
69455;BME280;56660;51.986;5.930;2022-07-21T03:22:02;101671.72;;;22.17;64.86
69455;BME280;56660;51.986;5.930;2022-07-21T03:24:28;101666.28;;;22.17;64.85
69455;BME280;56660;51.986;5.930;2022-07-21T03:26:54;101675.50;;;22.16;64.68
69455;BME280;56660;51.986;5.930;2022-07-21T03:29:20;101670.44;;;22.12;64.94
69455;BME280;56660;51.986;5.930;2022-07-21T03:31:46;101670.66;;;22.11;64.92
69455;BME280;56660;51.986;5.930;2022-07-21T03:34:12;101674.81;;;22.07;64.93
69455;BME280;56660;51.986;5.930;2022-07-21T03:36:37;101668.53;;;22.06;64.98
69455;BME280;56660;51.986;5.930;2022-07-21T03:39:04;101674.19;;;22.05;64.99
69455;BME280;56660;51.986;5.930;2022-07-21T03:41:30;101680.66;;;22.04;64.88
69455;BME280;56660;51.986;5.930;2022-07-21T03:43:56;101679.16;;;22.01;64.76
69455;BME280;56660;51.986;5.930;2022-07-21T03:46:22;101688.56;;;21.99;64.87
69455;BME280;56660;51.986;5.930;2022-07-21T03:48:48;101692.72;;;21.95;65.19
69455;BME280;56660;51.986;5.930;2022-07-21T03:51:14;101687.69;;;21.92;64.99
69455;BME280;56660;51.986;5.930;2022-07-21T03:53:39;101684.50;;;21.88;65.17
69455;BME280;56660;51.986;5.930;2022-07-21T03:56:07;101679.91;;;21.89;65.10
69455;BME280;56660;51.986;5.930;2022-07-21T03:58:32;101683.47;;;21.89;65.36
69455;BME280;56660;51.986;5.930;2022-07-21T04:00:58;101683.03;;;21.86;65.29
69455;BME280;56660;51.986;5.930;2022-07-21T04:03:24;101682.59;;;21.82;65.38
69455;BME280;56660;51.986;5.930;2022-07-21T04:05:50;101682.59;;;21.82;65.61
69455;BME280;56660;51.986;5.930;2022-07-21T04:08:15;101684.47;;;21.81;65.58
69455;BME280;56660;51.986;5.930;2022-07-21T04:10:42;101678.38;;;21.79;65.58
69455;BME280;56660;51.986;5.930;2022-07-21T04:13:12;101677.34;;;21.80;65.22
69455;BME280;56660;51.986;5.930;2022-07-21T04:15:39;101685.06;;;21.77;65.72
69455;BME280;56660;51.986;5.930;2022-07-21T04:18:05;101678.78;;;21.76;65.85
69455;BME280;56660;51.986;5.930;2022-07-21T04:20:32;101672.09;;;21.79;65.83
69455;BME280;56660;51.986;5.930;2022-07-21T04:22:58;101683.81;;;21.79;65.68
69455;BME280;56660;51.986;5.930;2022-07-21T04:25:24;101682.97;;;21.79;65.96
69455;BME280;56660;51.986;5.930;2022-07-21T04:27:55;101684.88;;;21.78;65.84
69455;BME280;56660;51.986;5.930;2022-07-21T04:30:26;101686.94;;;21.76;65.70
69455;BME280;56660;51.986;5.930;2022-07-21T04:32:51;101691.28;;;21.71;65.76
69455;BME280;56660;51.986;5.930;2022-07-21T04:35:17;101687.53;;;21.72;65.91
69455;BME280;56660;51.986;5.930;2022-07-21T04:37:43;101690.47;;;21.70;65.91
69455;BME280;56660;51.986;5.930;2022-07-21T04:40:10;101699.47;;;21.71;65.89
69455;BME280;56660;51.986;5.930;2022-07-21T04:42:39;101685.66;;;21.72;65.86
69455;BME280;56660;51.986;5.930;2022-07-21T04:45:07;101695.69;;;21.72;65.92
69455;BME280;56660;51.986;5.930;2022-07-21T04:47:43;101692.78;;;21.73;66.28
69455;BME280;56660;51.986;5.930;2022-07-21T04:50:10;101698.03;;;21.75;66.38
69455;BME280;56660;51.986;5.930;2022-07-21T04:52:36;101684.22;;;21.76;66.04
69455;BME280;56660;51.986;5.930;2022-07-21T04:55:03;101691.34;;;21.77;66.01
69455;BME280;56660;51.986;5.930;2022-07-21T04:57:29;101687.78;;;21.77;65.78
69455;BME280;56660;51.986;5.930;2022-07-21T04:59:56;101689.28;;;21.79;65.99
69455;BME280;56660;51.986;5.930;2022-07-21T05:02:26;101679.88;;;21.82;66.00
69455;BME280;56660;51.986;5.930;2022-07-21T05:05:03;101682.59;;;21.82;65.94
69455;BME280;56660;51.986;5.930;2022-07-21T05:07:32;101676.50;;;21.80;66.02
69455;BME280;56660;51.986;5.930;2022-07-21T05:10:13;101672.94;;;21.79;66.37
69455;BME280;56660;51.986;5.930;2022-07-21T05:12:43;101680.06;;;21.80;66.10
69455;BME280;56660;51.986;5.930;2022-07-21T05:15:12;101675.47;;;21.81;66.08
69455;BME280;56660;51.986;5.930;2022-07-21T05:17:44;101666.44;;;21.80;65.97
69455;BME280;56660;51.986;5.930;2022-07-21T05:20:14;101672.53;;;21.82;66.03
69455;BME280;56660;51.986;5.930;2022-07-21T05:22:41;101663.13;;;21.85;66.15
69455;BME280;56660;51.986;5.930;2022-07-21T05:25:11;101663.97;;;21.86;66.17
69455;BME280;56660;51.986;5.930;2022-07-21T05:27:39;101659.56;;;21.85;66.14
69455;BME280;56660;51.986;5.930;2022-07-21T05:30:11;101661.84;;;21.81;66.10
69455;BME280;56660;51.986;5.930;2022-07-21T05:32:40;101658.69;;;21.77;66.30
69455;BME280;56660;51.986;5.930;2022-07-21T05:35:07;101663.28;;;21.77;66.50
69455;BME280;56660;51.986;5.930;2022-07-21T05:37:35;101653.88;;;21.79;66.53
69455;BME280;56660;51.986;5.930;2022-07-21T05:40:02;101652.84;;;21.80;66.67
69455;BME280;56660;51.986;5.930;2022-07-21T05:42:31;101651.16;;;21.79;66.67
69455;BME280;56660;51.986;5.930;2022-07-21T05:44:57;101648.00;;;21.76;66.57
69455;BME280;56660;51.986;5.930;2022-07-21T05:47:42;101644.22;;;21.77;66.52
69455;BME280;56660;51.986;5.930;2022-07-21T05:50:13;101650.31;;;21.79;66.56
69455;BME280;56660;51.986;5.930;2022-07-21T05:52:47;101643.19;;;21.78;66.61
69455;BME280;56660;51.986;5.930;2022-07-21T05:55:14;101648.19;;;21.74;66.67
69455;BME280;56660;51.986;5.930;2022-07-21T05:57:41;101647.53;;;21.72;66.77
69455;BME280;56660;51.986;5.930;2022-07-21T06:00:09;101642.94;;;21.73;66.75
69455;BME280;56660;51.986;5.930;2022-07-21T06:02:39;101641.66;;;21.69;66.65
69455;BME280;56660;51.986;5.930;2022-07-21T06:05:09;101639.13;;;21.67;66.71
69455;BME280;56660;51.986;5.930;2022-07-21T06:10:37;101645.41;;;21.68;66.72
69455;BME280;56660;51.986;5.930;2022-07-21T06:13:05;101635.56;;;21.67;66.88
69455;BME280;56660;51.986;5.930;2022-07-21T06:15:33;101642.31;;;21.71;66.61
69455;BME280;56660;51.986;5.930;2022-07-21T06:18:00;101643.78;;;21.73;66.50
69455;BME280;56660;51.986;5.930;2022-07-21T06:20:26;101640.22;;;21.73;66.57
69455;BME280;56660;51.986;5.930;2022-07-21T06:23:10;101650.28;;;21.72;66.77
69455;BME280;56660;51.986;5.930;2022-07-21T06:25:40;101646.06;;;21.70;66.39
69455;BME280;56660;51.986;5.930;2022-07-21T06:28:12;101668.69;;;21.70;66.24
69455;BME280;56660;51.986;5.930;2022-07-21T06:30:46;101661.75;;;21.68;66.58
69455;BME280;56660;51.986;5.930;2022-07-21T06:33:18;101662.41;;;21.70;66.48
69455;BME280;56660;51.986;5.930;2022-07-21T06:35:46;101661.16;;;21.72;66.33
69455;BME280;56660;51.986;5.930;2022-07-21T06:38:18;101657.44;;;21.80;66.37
69455;BME280;56660;51.986;5.930;2022-07-21T06:40:48;101663.38;;;21.90;66.00
69455;BME280;56660;51.986;5.930;2022-07-21T06:43:18;101665.53;;;22.01;66.15
69455;BME280;56660;51.986;5.930;2022-07-21T06:45:45;101668.38;;;22.14;66.09
69455;BME280;56660;51.986;5.930;2022-07-21T06:48:11;101671.16;;;22.28;65.88
69455;BME280;56660;51.986;5.930;2022-07-21T06:50:37;101677.06;;;22.38;65.52
69455;BME280;56660;51.986;5.930;2022-07-21T06:53:05;101680.88;;;22.43;65.04
69455;BME280;56660;51.986;5.930;2022-07-21T06:55:54;101687.81;;;22.46;65.52
69455;BME280;56660;51.986;5.930;2022-07-21T06:58:23;101690.34;;;22.54;65.34
69455;BME280;56660;51.986;5.930;2022-07-21T07:00:50;101681.78;;;22.57;65.00
69455;BME280;56660;51.986;5.930;2022-07-21T07:03:20;101689.13;;;22.63;64.84
69455;BME280;56660;51.986;5.930;2022-07-21T07:05:47;101692.94;;;22.69;65.02
69455;BME280;56660;51.986;5.930;2022-07-21T07:08:15;101693.59;;;22.77;64.67
69455;BME280;56660;51.986;5.930;2022-07-21T07:10:42;101698.88;;;22.86;64.51
69455;BME280;56660;51.986;5.930;2022-07-21T07:13:14;101699.31;;;22.83;64.62
69455;BME280;56660;51.986;5.930;2022-07-21T07:15:44;101716.72;;;22.82;64.26
69455;BME280;56660;51.986;5.930;2022-07-21T07:18:11;101705.53;;;22.76;64.21
69455;BME280;56660;51.986;5.930;2022-07-21T07:20:39;101699.66;;;22.73;64.19
69455;BME280;56660;51.986;5.930;2022-07-21T07:23:09;101703.63;;;22.70;64.15
69455;BME280;56660;51.986;5.930;2022-07-21T07:25:34;101699.03;;;22.71;64.27
69455;BME280;56660;51.986;5.930;2022-07-21T07:28:04;101701.75;;;22.71;64.15
69455;BME280;56660;51.986;5.930;2022-07-21T07:30:39;101698.59;;;22.67;64.21
69455;BME280;56660;51.986;5.930;2022-07-21T07:33:06;101702.34;;;22.66;64.18
69455;BME280;56660;51.986;5.930;2022-07-21T07:35:37;101708.41;;;22.62;64.24
69455;BME280;56660;51.986;5.930;2022-07-21T07:38:04;101703.38;;;22.59;64.07
69455;BME280;56660;51.986;5.930;2022-07-21T07:40:37;101693.13;;;22.61;64.38
69455;BME280;56660;51.986;5.930;2022-07-21T07:43:11;101689.34;;;22.62;64.53
69455;BME280;56660;51.986;5.930;2022-07-21T07:45:41;101702.97;;;22.62;64.33
69455;BME280;56660;51.986;5.930;2022-07-21T07:48:09;101702.34;;;22.60;64.60
69455;BME280;56660;51.986;5.930;2022-07-21T07:50:35;101698.56;;;22.61;63.98
69455;BME280;56660;51.986;5.930;2022-07-21T07:53:04;101708.22;;;22.63;64.52
69455;BME280;56660;51.986;5.930;2022-07-21T07:55:31;101707.81;;;22.66;64.31
69455;BME280;56660;51.986;5.930;2022-07-21T07:57:59;101702.97;;;22.62;64.01
69455;BME280;56660;51.986;5.930;2022-07-21T08:00:35;101709.09;;;22.70;64.10
69455;BME280;56660;51.986;5.930;2022-07-21T08:03:07;101705.31;;;22.71;64.37
69455;BME280;56660;51.986;5.930;2022-07-21T08:05:35;101701.38;;;22.81;64.15
69455;BME280;56660;51.986;5.930;2022-07-21T08:08:02;101703.72;;;22.84;63.57
69455;BME280;56660;51.986;5.930;2022-07-21T08:10:35;101698.25;;;22.84;63.64
69455;BME280;56660;51.986;5.930;2022-07-21T08:13:06;101700.97;;;22.84;63.55
69455;BME280;56660;51.986;5.930;2022-07-21T08:15:36;101697.22;;;22.85;63.47
69455;BME280;56660;51.986;5.930;2022-07-21T08:18:10;101684.84;;;22.89;63.48
69455;BME280;56660;51.986;5.930;2022-07-21T08:20:59;101687.78;;;22.94;63.45
69455;BME280;56660;51.986;5.930;2022-07-21T08:23:26;101695.16;;;23.00;63.36
69455;BME280;56660;51.986;5.930;2022-07-21T08:26:02;101696.84;;;23.01;62.97
69455;BME280;56660;51.986;5.930;2022-07-21T08:28:41;101694.53;;;22.98;63.13
69455;BME280;56660;51.986;5.930;2022-07-21T08:31:18;101692.44;;;23.00;63.36
69455;BME280;56660;51.986;5.930;2022-07-21T08:34:01;101686.97;;;23.06;63.59
69455;BME280;56660;51.986;5.930;2022-07-21T08:36:33;101680.06;;;23.17;63.17
69455;BME280;56660;51.986;5.930;2022-07-21T08:39:01;101680.31;;;23.29;62.98
69455;BME280;56660;51.986;5.930;2022-07-21T08:41:36;101675.28;;;23.39;62.63
69455;BME280;56660;51.986;5.930;2022-07-21T08:44:07;101675.09;;;23.40;62.66
69455;BME280;56660;51.986;5.930;2022-07-21T08:46:42;101684.75;;;23.43;62.77
69455;BME280;56660;51.986;5.930;2022-07-21T08:49:26;101680.97;;;23.44;62.75
69455;BME280;56660;51.986;5.930;2022-07-21T08:52:12;101686.22;;;23.46;62.65
69455;BME280;56660;51.986;5.930;2022-07-21T08:54:38;101678.03;;;23.46;62.68
69455;BME280;56660;51.986;5.930;2022-07-21T08:57:06;101675.72;;;23.42;62.69
69455;BME280;56660;51.986;5.930;2022-07-21T08:59:37;101683.06;;;23.42;62.82
69455;BME280;56660;51.986;5.930;2022-07-21T09:02:06;101677.59;;;23.42;63.29
69455;BME280;56660;51.986;5.930;2022-07-21T09:04:59;101679.91;;;23.45;62.68
69455;BME280;56660;51.986;5.930;2022-07-21T09:07:28;101685.78;;;23.42;62.58
69455;BME280;56660;51.986;5.930;2022-07-21T09:10:13;101676.53;;;23.36;62.40
69455;BME280;56660;51.986;5.930;2022-07-21T09:12:52;101684.28;;;23.26;62.92
69455;BME280;56660;51.986;5.930;2022-07-21T09:22:22;101695.31;;;22.85;63.26
69455;BME280;56660;51.986;5.930;2022-07-21T09:24:59;101693.22;;;22.81;63.53
69455;BME280;56660;51.986;5.930;2022-07-21T09:27:27;101699.44;;;22.74;63.71
69455;BME280;56660;51.986;5.930;2022-07-21T09:30:06;101693.97;;;22.68;63.98
69455;BME280;56660;51.986;5.930;2022-07-21T09:32:41;101699.81;;;22.58;64.13
69455;BME280;56660;51.986;5.930;2022-07-21T09:35:39;101708.00;;;22.58;64.22
69455;BME280;56660;51.986;5.930;2022-07-21T09:38:13;101713.44;;;22.58;64.64
69455;BME280;56660;51.986;5.930;2022-07-21T09:40:48;101715.75;;;22.61;64.50
69455;BME280;56660;51.986;5.930;2022-07-21T09:43:28;101719.31;;;22.62;64.70
69455;BME280;56660;51.986;5.930;2022-07-21T09:46:06;101714.28;;;22.59;64.96
69455;BME280;56660;51.986;5.930;2022-07-21T09:48:57;101719.50;;;22.54;66.18
69455;BME280;56660;51.986;5.930;2022-07-21T09:51:28;101717.34;;;22.42;65.53
69455;BME280;56660;51.986;5.930;2022-07-21T09:54:00;101722.53;;;22.31;65.43
69455;BME280;56660;51.986;5.930;2022-07-21T09:56:33;101728.94;;;22.17;66.33
69455;BME280;56660;51.986;5.930;2022-07-21T09:59:08;101718.13;;;22.02;66.62
69455;BME280;56660;51.986;5.930;2022-07-21T10:01:46;101728.31;;;21.93;67.19
69455;BME280;56660;51.986;5.930;2022-07-21T10:04:34;101728.28;;;21.87;67.24
69455;BME280;56660;51.986;5.930;2022-07-21T10:07:11;101729.06;;;21.80;67.56
69455;BME280;56660;51.986;5.930;2022-07-21T10:09:42;101727.38;;;21.79;67.48
69455;BME280;56660;51.986;5.930;2022-07-21T10:12:10;101728.88;;;21.82;67.63
69455;BME280;56660;51.986;5.930;2022-07-21T10:14:37;101729.31;;;21.86;67.87
69455;BME280;56660;51.986;5.930;2022-07-21T10:17:15;101731.00;;;21.87;68.04
69455;BME280;56660;51.986;5.930;2022-07-21T10:19:57;101729.50;;;21.84;68.64
69455;BME280;56660;51.986;5.930;2022-07-21T10:25:50;101730.31;;;21.78;68.24
69455;BME280;56660;51.986;5.930;2022-07-21T10:28:19;101724.59;;;21.73;68.84
69455;BME280;56660;51.986;5.930;2022-07-21T10:30:58;101743.84;;;21.71;69.09
69455;BME280;56660;51.986;5.930;2022-07-21T10:33:58;101736.72;;;21.70;69.80
69455;BME280;56660;51.986;5.930;2022-07-21T10:36:46;101736.28;;;21.67;70.00
69455;BME280;56660;51.986;5.930;2022-07-21T10:39:22;101739.00;;;21.67;69.99
69455;BME280;56660;51.986;5.930;2022-07-21T10:41:51;101742.38;;;21.69;70.05
69455;BME280;56660;51.986;5.930;2022-07-21T10:44:42;101743.59;;;21.66;70.73
69455;BME280;56660;51.986;5.930;2022-07-21T10:47:15;101741.09;;;21.65;70.75
69455;BME280;56660;51.986;5.930;2022-07-21T10:49:50;101735.00;;;21.63;70.76
69455;BME280;56660;51.986;5.930;2022-07-21T10:52:59;101739.41;;;21.64;71.36
69455;BME280;56660;51.986;5.930;2022-07-21T10:55:30;101738.31;;;21.58;70.89
69455;BME280;56660;51.986;5.930;2022-07-21T10:58:16;101742.06;;;21.57;71.74
69455;BME280;56660;51.986;5.930;2022-07-21T11:00:54;101742.25;;;21.56;71.22
69455;BME280;56660;51.986;5.930;2022-07-21T11:03:39;101743.28;;;21.55;72.10
69455;BME280;56660;51.986;5.930;2022-07-21T11:06:20;101747.69;;;21.56;71.85
69455;BME280;56660;51.986;5.930;2022-07-21T11:08:50;101747.31;;;21.59;71.77
69455;BME280;56660;51.986;5.930;2022-07-21T11:11:34;101749.00;;;21.60;71.51
69455;BME280;56660;51.986;5.930;2022-07-21T11:14:04;101749.19;;;21.58;71.76
69455;BME280;56660;51.986;5.930;2022-07-21T11:16:59;101755.28;;;21.60;72.29
69455;BME280;56660;51.986;5.930;2022-07-21T11:19:30;101752.09;;;21.57;71.63
69455;BME280;56660;51.986;5.930;2022-07-21T11:22:01;101753.13;;;21.56;72.22
69455;BME280;56660;51.986;5.930;2022-07-21T11:24:41;101762.78;;;21.58;71.75
69455;BME280;56660;51.986;5.930;2022-07-21T11:27:19;101757.75;;;21.55;71.97
69455;BME280;56660;51.986;5.930;2022-07-21T11:29:49;101768.81;;;21.54;72.26
69455;BME280;56660;51.986;5.930;2022-07-21T11:32:22;101767.78;;;21.55;71.92
69455;BME280;56660;51.986;5.930;2022-07-21T11:34:54;101761.03;;;21.50;72.15
69455;BME280;56660;51.986;5.930;2022-07-21T11:37:29;101768.81;;;21.54;72.46
69455;BME280;56660;51.986;5.930;2022-07-21T11:39:57;101758.97;;;21.53;72.64
69455;BME280;56660;51.986;5.930;2022-07-21T11:42:28;101764.03;;;21.56;72.38
69455;BME280;56660;51.986;5.930;2022-07-21T11:44:55;101761.94;;;21.58;72.75
69455;BME280;56660;51.986;5.930;2022-07-21T11:47:39;101764.94;;;21.63;72.40
69455;BME280;56660;51.986;5.930;2022-07-21T11:50:11;101762.22;;;21.63;72.27
69455;BME280;56660;51.986;5.930;2022-07-21T11:52:38;101763.06;;;21.63;72.25
69455;BME280;56660;51.986;5.930;2022-07-21T11:55:07;101754.03;;;21.63;72.18
69455;BME280;56660;51.986;5.930;2022-07-21T11:57:37;101755.09;;;21.62;72.03
69455;BME280;56660;51.986;5.930;2022-07-21T12:00:09;101751.50;;;21.61;72.33
69455;BME280;56660;51.986;5.930;2022-07-21T12:02:35;101758.84;;;21.61;72.15
69455;BME280;56660;51.986;5.930;2022-07-21T12:05:08;101761.94;;;21.58;72.75
69455;BME280;56660;51.986;5.930;2022-07-21T12:07:37;101758.19;;;21.59;72.49
69455;BME280;56660;51.986;5.930;2022-07-21T12:10:06;101754.03;;;21.63;72.73
69455;BME280;56660;51.986;5.930;2022-07-21T12:12:37;101759.75;;;21.68;72.73
69455;BME280;56660;51.986;5.930;2022-07-21T12:15:13;101756.44;;;21.72;72.92
69455;BME280;56660;51.986;5.930;2022-07-21T12:17:43;101767.56;;;21.77;72.12
69455;BME280;56660;51.986;5.930;2022-07-21T12:20:12;101759.41;;;21.77;72.37
69455;BME280;56660;51.986;5.930;2022-07-21T12:22:48;101767.38;;;21.79;72.47
69455;BME280;56660;51.986;5.930;2022-07-21T12:25:18;101773.47;;;21.81;72.20
69455;BME280;56660;51.986;5.930;2022-07-21T12:27:58;101778.91;;;21.81;72.00
69455;BME280;56660;51.986;5.930;2022-07-21T12:30:36;101777.88;;;21.82;72.17
69455;BME280;56660;51.986;5.930;2022-07-21T12:33:06;101772.56;;;21.74;72.03
69455;BME280;56660;51.986;5.930;2022-07-21T12:35:58;101776.31;;;21.73;72.19
69455;BME280;56660;51.986;5.930;2022-07-21T12:38:36;101775.69;;;21.71;72.15
69455;BME280;56660;51.986;5.930;2022-07-21T12:41:02;101771.34;;;21.76;72.57
69455;BME280;56660;51.986;5.930;2022-07-21T12:43:31;101777.69;;;21.83;71.99
69455;BME280;56660;51.986;5.930;2022-07-21T12:46:00;101774.38;;;21.88;71.73
69455;BME280;56660;51.986;5.930;2022-07-21T12:48:31;101782.72;;;21.87;71.78
69455;BME280;56660;51.986;5.930;2022-07-21T12:51:04;101781.50;;;21.89;72.00
69455;BME280;56660;51.986;5.930;2022-07-21T12:53:36;101784.47;;;21.94;71.87
69455;BME280;56660;51.986;5.930;2022-07-21T12:56:04;101786.41;;;22.00;71.61
69455;BME280;56660;51.986;5.930;2022-07-21T12:58:35;101787.25;;;22.01;71.29
69455;BME280;56660;51.986;5.930;2022-07-21T13:01:05;101786.41;;;22.00;71.65
69455;BME280;56660;51.986;5.930;2022-07-21T13:03:32;101782.84;;;22.00;71.53
69455;BME280;56660;51.986;5.930;2022-07-21T13:05:59;101784.72;;;21.99;71.44
69455;BME280;56660;51.986;5.930;2022-07-21T13:08:26;101780.31;;;21.98;71.65
69455;BME280;56660;51.986;5.930;2022-07-21T13:10:53;101790.16;;;21.99;71.32
69455;BME280;56660;51.986;5.930;2022-07-21T13:13:19;101780.72;;;21.95;71.51
69455;BME280;56660;51.986;5.930;2022-07-21T13:15:57;101796.41;;;21.93;71.67
69455;BME280;56660;51.986;5.930;2022-07-21T13:18:23;101793.63;;;21.87;71.47
69455;BME280;56660;51.986;5.930;2022-07-21T13:20:49;101787.94;;;21.81;71.53